sim
Sign-in with your pilot id or email,
or register
Callsign
Passwort

Schedule Details

Flight Number: DLH2503
Departure: Manchester Airport (EGCC) at 17:40
Arrival: Munich Airport (EDDM) at 19:35
Route: Lufthansa Passenger Schedule. Enter filed route here before submitting Pirep.

Weather Information
Getting current METAR information for EGCC 210520Z AUTO 10003KT 7000 NCD 06/05 Q1019
Getting current METAR information for EDDM 210520Z VRB01KT 9999 1500NE R08L/0650N BCFG NSC 07/07 Q1016 NOSIG

Schedule Frequency

Route Map